Time;durP1;ratioP1;P1;durP2;ratioP2;P2;SDS_P1;SDS_P2;PMS_P1;PMS_P2;Temp;Humidity;BMP_temperature;BMP_pressure;BME280_temperature;BME280_humidity;BME280_pressure;Samples;Min_cycle;Max_cycle;Signal;HPM_P1;HPM_P2
2021/10/23 00:01:18;;;;;;;8.73;2.63;;;;;;;5.82;74.32;96502.00;5082251;28;20064;-51
2021/10/23 00:03:45;;;;;;;7.30;3.08;;;;;;;5.96;73.51;96510.97;5071122;28;20386;-53
2021/10/23 00:06:12;;;;;;;5.00;2.50;;;;;;;5.89;73.71;96515.06;5071194;28;20055;-48
2021/10/23 00:08:39;;;;;;;7.07;2.30;;;;;;;5.74;74.12;96500.72;5071111;28;20047;-51
2021/10/23 00:11:07;;;;;;;6.20;2.83;;;;;;;5.67;74.81;96513.72;5071307;28;20366;-49
2021/10/23 00:13:34;;;;;;;7.93;3.10;;;;;;;5.71;74.60;96506.69;5070847;28;20048;-47
2021/10/23 00:16:01;;;;;;;7.60;3.30;;;;;;;5.70;75.11;96518.50;5071165;28;20049;-50
2021/10/23 00:18:28;;;;;;;5.97;3.20;;;;;;;5.64;74.82;96516.97;5070941;28;20178;-48
2021/10/23 00:20:56;;;;;;;6.72;2.70;;;;;;;5.90;73.15;96511.28;5070937;28;20497;-47
2021/10/23 00:23:23;;;;;;;6.88;2.42;;;;;;;5.73;73.67;96512.56;5076687;28;20115;-52
2021/10/23 00:25:53;;;;;;;6.88;2.42;;;;;;;5.63;73.88;96518.84;5088061;28;20040;-51
2021/10/23 00:28:20;;;;;;;3.65;2.22;;;;;;;5.72;73.85;96510.16;5070918;28;20401;-48
2021/10/23 00:30:47;;;;;;;9.00;2.28;;;;;;;5.72;73.75;96520.91;5073734;28;20036;-49
2021/10/23 00:33:14;;;;;;;8.30;2.42;;;;;;;5.63;73.86;96523.44;5074479;28;20044;-48
2021/10/23 00:35:42;;;;;;;5.38;2.10;;;;;;;5.64;74.42;96516.97;5074679;28;20044;-49
2021/10/23 00:38:09;;;;;;;8.93;2.13;;;;;;;5.67;74.17;96521.75;5074667;28;20075;-52
2021/10/23 00:40:36;;;;;;;5.90;2.30;;;;;;;5.79;73.94;96519.47;5074356;28;20456;-50
2021/10/23 00:43:03;;;;;;;5.28;2.53;;;;;;;5.66;74.07;96514.81;5074436;28;20059;-49
2021/10/23 00:45:30;;;;;;;5.85;2.60;;;;;;;5.66;73.73;96520.16;5074481;28;20110;-51
2021/10/23 00:47:57;;;;;;;4.78;2.17;;;;;;;5.75;73.47;96513.09;5076841;28;20044;-49
2021/10/23 00:50:24;;;;;;;8.75;2.30;;;;;;;5.75;73.17;96507.72;5093429;28;20040;-49
2021/10/23 00:52:51;;;;;;;5.97;2.20;;;;;;;6.10;71.65;96516.44;5094554;28;20127;-48
2021/10/23 00:55:19;;;;;;;3.10;1.60;;;;;;;6.26;72.01;96522.41;5094122;28;20071;-51
2021/10/23 00:57:46;;;;;;;5.53;1.92;;;;;;;5.95;72.08;96522.03;5091579;28;20054;-49
2021/10/23 01:00:14;;;;;;;6.30;2.03;;;;;;;6.00;71.96;96521.94;5074053;28;20532;-51
2021/10/23 01:02:41;;;;;;;6.38;2.10;;;;;;;5.93;72.62;96519.59;5074136;28;20495;-53
2021/10/23 01:05:09;;;;;;;3.63;1.85;;;;;;;5.90;72.77;96525.53;5073933;28;20127;-54
2021/10/23 01:07:37;;;;;;;6.07;2.20;;;;;;;5.67;72.85;96523.66;5074130;28;20070;-52
2021/10/23 01:10:06;;;;;;;6.13;2.53;;;;;;;5.70;73.23;96528.44;5073825;28;20103;-52
2021/10/23 01:12:35;;;;;;;4.03;2.00;;;;;;;5.86;73.32;96533.34;5074228;28;20049;-48
2021/10/23 01:15:25;;;;;;;4.25;1.80;;;;;;;5.92;72.47;96534.09;5073623;28;20041;-52
2021/10/23 01:17:54;;;;;;;5.78;2.08;;;;;;;5.73;72.67;96528.69;5074054;28;20481;-49
2021/10/23 01:20:23;;;;;;;5.53;2.03;;;;;;;6.01;71.69;96529.72;5073848;28;20045;-49
2021/10/23 01:22:51;;;;;;;3.60;1.92;;;;;;;5.97;72.15;96526.00;5081293;28;20135;-49
2021/10/23 01:25:19;;;;;;;4.35;2.15;;;;;;;6.08;71.55;96532.06;5086749;28;20048;-51
2021/10/23 01:27:46;;;;;;;5.75;1.98;;;;;;;5.83;72.25;96530.44;5118680;22;20058;-50
2021/10/23 01:30:14;;;;;;;4.22;1.90;;;;;;;6.00;71.81;96535.38;5108486;28;20549;-52
2021/10/23 01:32:41;;;;;;;5.38;2.20;;;;;;;5.76;72.57;96522.75;5076183;28;20462;-52
2021/10/23 01:35:09;;;;;;;4.82;2.03;;;;;;;5.97;71.72;96533.25;5092978;28;20050;-50
2021/10/23 01:37:43;;;;;;;4.35;1.88;;;;;;;5.78;72.43;96530.50;5093805;28;20097;-52
2021/10/23 01:40:23;;;;;;;5.05;2.10;;;;;;;5.74;72.76;96532.94;5106516;28;20043;-53
2021/10/23 01:42:50;;;;;;;5.93;2.25;;;;;;;5.82;73.04;96539.59;5112877;28;20039;-53
2021/10/23 01:45:17;;;;;;;4.32;2.13;;;;;;;5.79;72.48;96542.84;5113390;28;20480;-53
2021/10/23 01:47:44;;;;;;;4.97;2.05;;;;;;;5.68;72.91;96538.66;5112460;28;20050;-51
2021/10/23 01:50:18;;;;;;;5.15;2.10;;;;;;;5.63;72.97;96534.97;5093557;28;20039;-50
2021/10/23 01:52:45;;;;;;;4.57;2.10;;;;;;;5.80;73.01;96542.56;5093523;28;20036;-51
2021/10/23 01:55:14;;;;;;;6.03;2.47;;;;;;;5.76;72.70;96535.38;5092696;28;20044;-54
2021/10/23 01:57:41;;;;;;;3.85;2.30;;;;;;;5.76;72.39;96540.75;5093257;28;20052;-49
2021/10/23 02:00:10;;;;;;;6.55;2.10;;;;;;;5.54;73.22;96538.56;5093110;28;20032;-52
2021/10/23 02:02:38;;;;;;;3.97;1.88;;;;;;;5.73;72.64;96534.03;5093268;28;20093;-51
2021/10/23 02:05:05;;;;;;;6.00;2.30;;;;;;;5.96;71.88;96535.16;5092450;28;20048;-49
2021/10/23 02:07:32;;;;;;;5.45;2.17;;;;;;;5.72;72.27;96534.31;5091756;28;20055;-50
2021/10/23 02:09:59;;;;;;;6.10;2.00;;;;;;;5.60;72.86;96534.72;5092304;28;20051;-49
2021/10/23 02:12:26;;;;;;;4.70;2.08;;;;;;;5.71;72.95;96535.41;5108866;28;20052;-49
2021/10/23 02:14:53;;;;;;;4.20;2.00;;;;;;;5.64;72.92;96543.81;5091029;28;20581;-53
2021/10/23 02:17:20;;;;;;;7.53;2.45;;;;;;;5.41;73.36;96531.97;5092086;28;20115;-50
2021/10/23 02:19:47;;;;;;;5.85;2.03;;;;;;;5.44;73.98;96533.28;5091878;28;20044;-52
2021/10/23 02:22:14;;;;;;;8.00;2.20;;;;;;;5.60;73.10;96535.53;5095531;28;20044;-50
2021/10/23 02:24:41;;;;;;;5.45;2.30;;;;;;;5.95;71.46;96533.56;5093039;28;20101;-51
2021/10/23 02:27:08;;;;;;;6.88;2.25;;;;;;;5.66;72.60;96530.13;5091539;28;20055;-52
2021/10/23 02:29:38;;;;;;;6.18;2.20;;;;;;;5.72;72.66;96535.16;5092673;28;20051;-53
2021/10/23 02:32:05;;;;;;;4.32;1.85;;;;;;;5.93;71.48;96537.59;5092804;28;20101;-48
2021/10/23 02:34:32;;;;;;;6.07;2.08;;;;;;;5.93;71.75;96541.09;5107582;28;20044;-47
2021/10/23 02:36:59;;;;;;;4.75;1.77;;;;;;;6.06;71.06;96545.75;5091369;28;20153;-49
2021/10/23 02:39:26;;;;;;;5.68;1.77;;;;;;;6.11;70.53;96552.97;5092118;28;20044;-47
2021/10/23 02:41:53;;;;;;;6.60;2.05;;;;;;;6.29;69.75;96546.00;5108004;28;20082;-47
2021/10/23 02:44:20;;;;;;;8.05;2.08;;;;;;;6.74;68.73;96555.31;5073925;28;20050;-46
2021/10/23 02:46:47;;;;;;;5.53;1.98;;;;;;;6.30;69.29;96558.34;5097291;28;20044;-48
2021/10/23 02:49:14;;;;;;;3.70;1.73;;;;;;;6.48;69.38;96559.47;5108633;28;20107;-48
2021/10/23 02:51:41;;;;;;;4.50;1.90;;;;;;;6.58;68.87;96556.63;5094234;28;20075;-51
2021/10/23 02:54:09;;;;;;;6.38;1.98;;;;;;;6.63;67.81;96563.81;5101986;28;20070;-53
2021/10/23 02:56:35;;;;;;;6.30;1.83;;;;;;;6.70;67.97;96565.06;5107902;28;20471;-52
2021/10/23 02:59:02;;;;;;;4.53;1.92;;;;;;;6.63;68.21;96561.13;5092217;28;20516;-50
2021/10/23 03:01:30;;;;;;;5.30;1.70;;;;;;;6.37;69.60;96566.88;5108698;28;20088;-49
2021/10/23 03:03:57;;;;;;;4.22;1.50;;;;;;;6.41;69.61;96567.09;5111699;28;20043;-53
2021/10/23 03:06:24;;;;;;;5.72;1.92;;;;;;;6.35;69.55;96573.63;5112429;28;20461;-54
2021/10/23 03:08:51;;;;;;;3.60;1.83;;;;;;;6.28;69.78;96572.09;5102185;28;20041;-50
2021/10/23 03:11:19;;;;;;;8.45;2.75;;;;;;;6.44;69.57;96574.59;5090802;28;20047;-52
2021/10/23 03:13:46;;;;;;;3.63;1.70;;;;;;;6.37;69.07;96574.94;5091300;28;20135;-51
2021/10/23 03:16:12;;;;;;;4.18;1.90;;;;;;;6.25;70.27;96578.03;5090611;28;20452;-54
2021/10/23 03:18:40;;;;;;;4.07;1.88;;;;;;;6.36;70.26;96577.91;5091812;28;20044;-49
2021/10/23 03:21:07;;;;;;;5.57;2.00;;;;;;;6.50;69.04;96584.16;5091658;28;20101;-49
2021/10/23 03:23:33;;;;;;;5.72;1.77;;;;;;;6.37;69.81;96592.94;5098203;28;20050;-46
2021/10/23 03:26:01;;;;;;;7.07;2.22;;;;;;;6.72;68.40;96592.44;5110629;28;20074;-47
2021/10/23 03:28:28;;;;;;;5.03;2.15;;;;;;;6.40;69.28;96586.97;5097841;28;20054;-46
2021/10/23 03:30:55;;;;;;;3.67;1.73;;;;;;;6.67;68.72;96587.16;5102858;28;20066;-45
2021/10/23 03:33:22;;;;;;;5.00;1.80;;;;;;;6.54;69.54;96599.44;5093408;28;20052;-49
2021/10/23 03:35:49;;;;;;;5.40;2.58;;;;;;;6.56;68.95;96591.06;5110379;28;20411;-48
2021/10/23 03:38:16;;;;;;;4.07;1.80;;;;;;;6.59;68.93;96601.25;5093914;28;20455;-50
2021/10/23 03:40:43;;;;;;;4.43;1.80;;;;;;;6.53;69.12;96597.00;5110718;28;20058;-51
2021/10/23 03:43:11;;;;;;;5.57;2.03;;;;;;;6.31;69.82;96601.06;5111183;28;20096;-49
2021/10/23 03:45:38;;;;;;;5.38;1.75;;;;;;;6.52;69.53;96598.91;5110682;28;20075;-50
2021/10/23 03:48:09;;;;;;;6.63;2.10;;;;;;;6.69;68.99;96603.78;5105323;28;20105;-50
2021/10/23 03:50:36;;;;;;;4.63;1.90;;;;;;;6.77;68.41;96592.38;5091419;28;20079;-49
2021/10/23 03:53:03;;;;;;;4.40;1.75;;;;;;;6.90;68.52;96611.56;5091239;28;20040;-48
2021/10/23 03:55:30;;;;;;;7.72;1.77;;;;;;;6.90;67.36;96608.88;5097012;28;20093;-49
2021/10/23 03:57:57;;;;;;;5.95;2.00;;;;;;;7.02;67.76;96606.56;5090097;28;20064;-50
2021/10/23 04:00:24;;;;;;;5.28;2.33;;;;;;;6.67;68.54;96600.59;5091699;28;20453;-49
2021/10/23 04:02:51;;;;;;;5.15;1.80;;;;;;;6.85;68.47;96611.63;5091679;28;20040;-49
2021/10/23 04:05:19;;;;;;;4.18;1.50;;;;;;;6.61;69.28;96606.34;5094058;28;20090;-49
2021/10/23 04:07:46;;;;;;;4.30;1.67;;;;;;;6.91;68.20;96618.56;5094498;28;20479;-49
2021/10/23 04:10:12;;;;;;;4.53;1.60;;;;;;;6.94;67.91;96613.38;5095657;28;20143;-52
2021/10/23 04:12:39;;;;;;;4.13;1.70;;;;;;;6.98;68.13;96616.28;5095624;28;20097;-51
2021/10/23 04:15:07;;;;;;;6.43;1.80;;;;;;;6.82;68.82;96620.28;5077352;28;20056;-49
2021/10/23 04:17:34;;;;;;;5.30;1.60;;;;;;;7.07;67.84;96622.59;5099525;28;20105;-51
2021/10/23 04:20:02;;;;;;;5.28;1.95;;;;;;;6.92;68.53;96626.34;5116044;28;20078;-50
2021/10/23 04:22:29;;;;;;;7.25;2.08;;;;;;;6.94;68.04;96626.03;5115649;28;20146;-49
2021/10/23 04:24:56;;;;;;;7.10;1.55;;;;;;;6.93;68.19;96627.13;5114226;28;20051;-51
2021/10/23 04:27:23;;;;;;;4.28;1.70;;;;;;;6.97;68.04;96630.84;5113898;28;20050;-51
2021/10/23 04:29:50;;;;;;;4.45;1.85;;;;;;;6.79;68.33;96627.03;5111837;28;20134;-49
2021/10/23 04:32:17;;;;;;;4.93;1.65;;;;;;;6.55;69.78;96627.09;5095188;28;20048;-49
2021/10/23 04:34:44;;;;;;;7.50;1.85;;;;;;;6.44;70.13;96621.06;5094873;28;20457;-51
2021/10/23 04:37:11;;;;;;;5.50;2.03;;;;;;;6.61;69.17;96625.16;5095106;28;20044;-53
2021/10/23 04:39:38;;;;;;;5.60;1.70;;;;;;;6.56;70.13;96626.00;5083397;28;20050;-49
2021/10/23 04:42:06;;;;;;;5.60;1.80;;;;;;;6.85;68.98;96627.78;5114322;28;20071;-50
2021/10/23 04:44:33;;;;;;;4.97;1.58;;;;;;;6.54;69.66;96630.91;5115285;28;20107;-49
2021/10/23 04:47:00;;;;;;;5.18;1.60;;;;;;;6.57;69.51;96629.53;5114464;28;20095;-45
2021/10/23 04:49:27;;;;;;;4.28;2.00;;;;;;;6.50;69.67;96630.69;5105496;28;20101;-49
2021/10/23 04:51:54;;;;;;;5.45;1.70;;;;;;;6.75;68.94;96636.78;5095088;28;20039;-45
2021/10/23 04:54:21;;;;;;;4.65;1.70;;;;;;;6.76;69.08;96644.59;5094626;28;20048;-47
2021/10/23 04:56:48;;;;;;;7.38;2.00;;;;;;;7.05;68.33;96638.22;5095300;28;20069;-45
2021/10/23 04:59:18;;;;;;;5.22;1.83;;;;;;;6.98;68.23;96635.13;5094666;28;20101;-51
2021/10/23 05:01:45;;;;;;;5.55;1.73;;;;;;;6.43;70.46;96640.97;5113542;28;20127;-54
2021/10/23 05:04:12;;;;;;;5.00;1.48;;;;;;;6.69;69.80;96635.25;5115084;28;20039;-53
2021/10/23 05:06:39;;;;;;;3.90;2.03;;;;;;;6.75;69.25;96645.66;5115377;28;20050;-53
2021/10/23 05:09:06;;;;;;;5.72;1.83;;;;;;;6.99;68.41;96644.81;5104204;28;20048;-48
2021/10/23 05:11:33;;;;;;;5.63;1.90;;;;;;;7.03;68.43;96648.50;5094380;28;20177;-52
2021/10/23 05:14:00;;;;;;;5.78;1.80;;;;;;;6.76;69.61;96644.59;5093095;28;20457;-50
2021/10/23 05:16:27;;;;;;;5.25;1.70;;;;;;;6.55;70.35;96635.19;5093556;28;20066;-52
2021/10/23 05:18:54;;;;;;;5.93;1.67;;;;;;;6.69;70.08;96646.00;5094243;28;20040;-51
2021/10/23 05:21:21;;;;;;;4.93;2.05;;;;;;;6.90;69.36;96644.66;5094326;28;20036;-49
2021/10/23 05:23:51;;;;;;;6.35;2.00;;;;;;;6.52;70.24;96644.63;5103173;28;20047;-53
2021/10/23 05:26:18;;;;;;;4.10;1.55;;;;;;;6.63;70.52;96647.16;5103706;28;20056;-51
2021/10/23 05:28:45;;;;;;;3.58;1.73;;;;;;;6.61;70.55;96647.47;5109892;28;20127;-50
2021/10/23 05:31:12;;;;;;;5.50;1.70;;;;;;;6.75;70.14;96648.34;5093888;28;20127;-47
2021/10/23 05:33:39;;;;;;;6.35;1.75;;;;;;;6.80;70.56;96655.56;5092511;28;20394;-49
2021/10/23 05:36:06;;;;;;;4.68;1.70;;;;;;;6.70;70.18;96650.31;5093943;28;20040;-48
2021/10/23 05:38:33;;;;;;;4.65;1.80;;;;;;;7.04;68.98;96652.78;5093988;28;20052;-48
2021/10/23 05:41:00;;;;;;;6.80;1.70;;;;;;;7.15;68.55;96648.88;5093700;28;20099;-49
2021/10/23 05:43:27;;;;;;;3.83;1.77;;;;;;;6.86;69.02;96650.88;5093608;28;20052;-52
2021/10/23 05:45:54;;;;;;;6.50;1.95;;;;;;;6.84;69.41;96653.09;5095920;28;20068;-48
2021/10/23 05:48:21;;;;;;;5.60;1.67;;;;;;;6.81;70.12;96650.97;5112613;28;20044;-49
2021/10/23 05:50:48;;;;;;;3.78;1.80;;;;;;;7.14;68.23;96657.22;5114138;28;20122;-46
2021/10/23 05:53:16;;;;;;;4.53;1.77;;;;;;;7.11;68.30;96661.28;5113738;28;20131;-45
2021/10/23 05:55:43;;;;;;;5.18;1.60;;;;;;;6.97;68.46;96660.44;5104242;28;20056;-45
2021/10/23 05:58:10;;;;;;;4.25;1.70;;;;;;;6.89;69.49;96669.13;5093372;28;20131;-46
2021/10/23 06:00:38;;;;;;;7.30;1.80;;;;;;;7.06;69.03;96671.34;5104376;27;20722;-49
2021/10/23 06:03:05;;;;;;;8.77;2.25;;;;;;;6.97;68.89;96665.81;5134222;27;20145;-46
2021/10/23 06:05:32;;;;;;;3.28;1.55;;;;;;;6.83;69.84;96673.00;5134654;27;20051;-49
2021/10/23 06:08:00;;;;;;;5.38;1.58;;;;;;;6.87;69.84;96674.03;5134293;27;20130;-47
2021/10/23 06:10:27;;;;;;;6.03;1.70;;;;;;;7.05;69.28;96673.22;5109433;28;20117;-45
2021/10/23 06:12:54;;;;;;;4.03;1.73;;;;;;;7.02;69.29;96680.00;5093476;28;20527;-50
2021/10/23 06:15:21;;;;;;;4.53;1.70;;;;;;;7.22;68.53;96678.91;5093252;28;20481;-46
2021/10/23 06:17:48;;;;;;;4.53;1.70;;;;;;;6.97;69.21;96676.56;5093245;28;20479;-46
2021/10/23 06:20:15;;;;;;;6.70;1.63;;;;;;;6.78;69.96;96673.88;5091731;28;20048;-45
2021/10/23 06:22:53;;;;;;;6.13;1.85;;;;;;;6.91;70.36;96685.81;5099510;27;20039;-48
2021/10/23 06:25:21;;;;;;;4.97;1.90;;;;;;;6.78;70.65;96677.34;5105387;28;20043;-45
2021/10/23 06:27:48;;;;;;;5.25;1.90;;;;;;;6.78;70.86;96685.41;5092542;28;20134;-46
2021/10/23 06:30:20;;;;;;;3.33;1.55;;;;;;;6.84;70.77;96683.47;5094507;28;20044;-49
2021/10/23 06:32:50;;;;;;;7.82;2.13;;;;;;;6.74;71.11;96689.78;5075412;28;20040;-45
2021/10/23 06:35:18;;;;;;;4.15;1.80;;;;;;;6.63;70.80;96699.06;5092917;28;20075;-45
2021/10/23 06:37:46;;;;;;;7.13;2.20;;;;;;;6.65;71.42;96699.56;5092991;28;20082;-46
2021/10/23 06:40:14;;;;;;;4.22;1.90;;;;;;;6.61;71.46;96693.19;5092731;28;20070;-45
2021/10/23 06:42:42;;;;;;;3.92;1.70;;;;;;;6.69;72.38;96697.91;5102394;28;20044;-44
2021/10/23 06:45:14;;;;;;;3.85;1.75;;;;;;;6.76;71.18;96709.13;5112795;28;20043;-45
2021/10/23 06:47:41;;;;;;;3.78;1.80;;;;;;;6.85;71.46;96706.59;5112880;28;20074;-46
2021/10/23 06:50:10;;;;;;;5.65;1.88;;;;;;;6.85;71.05;96713.84;5097054;28;20562;-48
2021/10/23 06:52:37;;;;;;;4.32;1.67;;;;;;;6.86;70.83;96718.13;5092594;28;20043;-46
2021/10/23 06:55:05;;;;;;;5.63;1.83;;;;;;;6.90;71.65;96719.97;5092310;28;20044;-48
2021/10/23 06:57:32;;;;;;;5.47;1.80;;;;;;;6.84;71.15;96721.13;5092267;28;20060;-46
2021/10/23 07:00:00;;;;;;;5.60;1.85;;;;;;;6.84;70.54;96726.50;5096227;27;20039;-54
2021/10/23 07:02:27;;;;;;;3.63;1.90;;;;;;;6.71;70.53;96728.00;5092281;28;20051;-50
2021/10/23 07:04:54;;;;;;;6.45;2.90;;;;;;;6.70;70.96;96734.47;5092064;28;20047;-51
2021/10/23 07:07:21;;;;;;;5.82;2.40;;;;;;;6.68;71.47;96741.22;5092175;28;20116;-50
2021/10/23 07:09:48;;;;;;;6.63;2.67;;;;;;;6.80;71.16;96738.94;5092697;28;20496;-50
2021/10/23 07:12:14;;;;;;;4.53;2.20;;;;;;;6.72;71.03;96744.94;5092181;28;20091;-50
2021/10/23 07:14:41;;;;;;;11.52;2.40;;;;;;;6.90;70.30;96757.63;5091837;28;20481;-51
2021/10/23 07:17:08;;;;;;;5.55;2.40;;;;;;;7.13;69.61;96753.31;5091440;28;20650;-48
2021/10/23 07:19:35;;;;;;;4.13;2.15;;;;;;;7.18;69.16;96752.44;5091841;28;20565;-49
2021/10/23 07:22:02;;;;;;;5.40;2.42;;;;;;;7.15;69.82;96761.91;5092006;28;20071;-50
2021/10/23 07:24:29;;;;;;;8.70;3.40;;;;;;;7.24;69.67;96773.59;5090356;28;20036;-51
2021/10/23 07:26:56;;;;;;;5.57;1.90;;;;;;;7.34;68.11;96763.78;5091689;28;20413;-47
2021/10/23 07:29:23;;;;;;;7.43;3.30;;;;;;;7.26;68.75;96767.94;5073998;28;20101;-51
2021/10/23 07:31:50;;;;;;;8.18;2.90;;;;;;;7.17;69.53;96773.16;5091718;28;20040;-47
2021/10/23 07:34:18;;;;;;;8.50;2.08;;;;;;;7.19;69.64;96776.38;5100663;27;20522;-49
2021/10/23 07:36:46;;;;;;;7.30;1.98;;;;;;;7.27;69.63;96788.38;5119500;27;20078;-44
2021/10/23 07:39:15;;;;;;;6.50;1.60;;;;;;;7.33;69.09;96791.81;5121388;27;20047;-46
2021/10/23 07:41:42;;;;;;;6.43;1.70;;;;;;;7.60;68.87;96794.63;5131205;27;20047;-49
2021/10/23 07:44:15;;;;;;;5.38;1.70;;;;;;;7.96;65.86;96807.56;5130950;27;20476;-45
2021/10/23 07:46:43;;;;;;;3.92;1.65;;;;;;;7.94;66.35;96812.47;5112198;27;20616;-44
2021/10/23 07:49:10;;;;;;;4.32;1.60;;;;;;;7.83;66.83;96817.22;5091643;28;20131;-48
2021/10/23 07:51:39;;;;;;;6.60;1.98;;;;;;;7.68;66.86;96810.16;5091624;28;20569;-45
2021/10/23 07:54:09;;;;;;;2.53;1.52;;;;;;;7.47;69.33;96809.66;5103969;28;20546;-51
2021/10/23 07:56:38;;;;;;;4.47;1.65;;;;;;;7.61;68.70;96817.81;5112118;28;20563;-47
2021/10/23 07:59:05;;;;;;;5.97;1.50;;;;;;;7.52;68.05;96824.13;5110668;28;20077;-49
2021/10/23 08:01:32;;;;;;;5.38;1.65;;;;;;;7.45;68.84;96822.59;5092199;28;20065;-49
2021/10/23 08:04:00;;;;;;;3.35;1.30;;;;;;;7.42;69.24;96820.47;5105835;28;20396;-47
2021/10/23 08:06:27;;;;;;;5.97;2.13;;;;;;;7.46;69.46;96820.69;5116769;28;20044;-47
2021/10/23 08:08:54;;;;;;;6.68;2.20;;;;;;;7.83;67.78;96827.16;5111901;28;20063;-48
2021/10/23 08:11:22;;;;;;;8.13;2.03;;;;;;;7.61;68.33;96817.81;5125145;28;20448;-47
2021/10/23 08:13:50;;;;;;;5.78;1.80;;;;;;;7.58;68.91;96815.69;5109725;28;20042;-46
2021/10/23 08:16:17;;;;;;;4.57;1.60;;;;;;;7.62;68.85;96808.63;5110536;28;20466;-48
2021/10/23 08:18:44;;;;;;;5.00;2.00;;;;;;;7.80;68.40;96811.59;5113131;28;20048;-48
2021/10/23 08:21:11;;;;;;;7.90;2.72;;;;;;;7.88;68.27;96811.75;5093517;28;20073;-46
2021/10/23 08:23:38;;;;;;;4.88;1.65;;;;;;;8.05;67.56;96811.19;5117107;28;20140;-48
2021/10/23 08:26:05;;;;;;;4.57;2.03;;;;;;;7.93;67.44;96805.50;5106155;28;20050;-48
2021/10/23 08:28:33;;;;;;;6.53;2.00;;;;;;;7.83;68.46;96786.75;5116104;28;20127;-45
2021/10/23 08:31:00;;;;;;;6.75;1.90;;;;;;;8.11;67.08;96777.69;5116111;28;20097;-44
2021/10/23 08:33:28;;;;;;;5.07;2.08;;;;;;;7.80;68.21;96784.66;5125855;28;20521;-49
2021/10/23 08:35:56;;;;;;;8.00;2.50;;;;;;;7.62;68.90;96779.00;5121109;28;20035;-47
2021/10/23 08:38:23;;;;;;;8.40;2.20;;;;;;;7.45;69.17;96771.44;5095326;28;20040;-45
2021/10/23 08:40:53;;;;;;;5.68;2.10;;;;;;;7.48;69.29;96778.94;5125184;28;20046;-48
2021/10/23 08:43:21;;;;;;;5.28;1.70;;;;;;;7.46;69.59;96769.53;5114339;28;20598;-45
2021/10/23 08:45:52;;;;;;;2.50;1.63;;;;;;;7.61;68.63;96772.03;5115563;28;20044;-46
2021/10/23 08:48:20;;;;;;;6.25;2.25;;;;;;;8.02;67.87;96784.84;5113246;28;20044;-44
2021/10/23 08:50:50;;;;;;;6.97;2.42;;;;;;;7.87;68.10;96780.50;5129503;27;20055;-46
2021/10/23 08:53:39;;;;;;;6.82;2.38;;;;;;;7.97;67.53;96795.72;5118247;27;20131;-45
2021/10/23 08:56:08;;;;;;;5.50;1.75;;;;;;;7.59;68.91;96790.34;5125064;27;20055;-45
2021/10/23 08:58:35;;;;;;;7.53;2.30;;;;;;;7.80;69.16;96790.03;5120518;27;20055;-44
2021/10/23 09:01:04;;;;;;;8.57;2.15;;;;;;;8.24;66.69;96786.91;5118234;27;20063;-45
2021/10/23 09:03:32;;;;;;;4.05;1.58;;;;;;;7.94;67.63;96789.00;5127829;27;20117;-45
2021/10/23 09:05:59;;;;;;;3.72;1.75;;;;;;;7.86;68.65;96796.94;5123689;27;20057;-51
2021/10/23 09:08:26;;;;;;;5.45;2.00;;;;;;;8.35;67.12;96796.44;5120032;27;20054;-46
2021/10/23 09:11:28;;;;;;;7.75;2.00;;;;;;;8.00;68.06;96792.44;5094552;28;20062;-47
2021/10/23 09:13:55;;;;;;;7.18;1.88;;;;;;;8.05;68.25;96796.94;5094419;28;20044;-46
2021/10/23 09:16:22;;;;;;;6.25;1.88;;;;;;;8.29;67.98;96786.81;5093183;28;20109;-45
2021/10/23 09:18:50;;;;;;;4.63;1.90;;;;;;;8.53;67.38;96786.69;5110050;28;20135;-46
2021/10/23 09:21:22;;;;;;;5.53;2.03;;;;;;;8.63;67.25;96786.50;5093399;27;20505;-46
2021/10/23 09:23:50;;;;;;;7.15;1.95;;;;;;;8.60;66.56;96784.41;5106511;27;20047;-47
2021/10/23 09:26:37;;;;;;;5.03;2.17;;;;;;;8.74;66.99;96789.00;5107230;28;20139;-45
2021/10/23 09:29:24;;;;;;;4.07;1.73;;;;;;;8.75;65.91;96793.31;5114918;27;20113;-45
2021/10/23 09:32:11;;;;;;;7.43;2.47;;;;;;;8.73;66.24;96787.41;5118120;27;20476;-46
2021/10/23 09:34:38;;;;;;;5.22;1.92;;;;;;;8.75;66.66;96791.41;5129662;27;20134;-46
2021/10/23 09:37:06;;;;;;;5.07;1.83;;;;;;;8.87;66.65;96790.91;5086764;27;20044;-48
2021/10/23 09:39:40;;;;;;;7.38;2.67;;;;;;;8.78;67.11;96781.94;5105717;27;20144;-45
2021/10/23 09:42:13;;;;;;;4.97;2.10;;;;;;;8.75;66.73;96788.72;5134796;27;20039;-49
2021/10/23 09:45:05;;;;;;;5.15;2.00;;;;;;;8.47;66.74;96787.09;5133316;27;20115;-45
2021/10/23 09:47:41;;;;;;;5.00;1.92;;;;;;;8.36;68.33;96791.84;5122620;27;20505;-46
2021/10/23 09:50:11;;;;;;;5.28;1.92;;;;;;;8.62;68.23;96787.59;5114035;28;20044;-47
2021/10/23 09:53:08;;;;;;;8.73;2.33;;;;;;;8.95;67.15;96792.91;5113966;28;20089;-48
2021/10/23 09:55:54;;;;;;;6.05;2.50;;;;;;;9.10;65.65;96795.31;5095894;28;20139;-51
2021/10/23 09:58:23;;;;;;;6.35;2.60;;;;;;;8.90;67.00;96795.69;5094897;28;20093;-52
2021/10/23 10:00:55;;;;;;;6.63;2.83;;;;;;;9.06;64.97;96804.28;5102975;28;20048;-52
2021/10/23 10:03:23;;;;;;;8.52;2.20;;;;;;;9.01;65.71;96794.41;5112161;28;20035;-50
2021/10/23 10:05:58;;;;;;;5.43;2.20;;;;;;;8.94;66.30;96801.28;5113741;28;20127;-49
2021/10/23 10:08:29;;;;;;;5.88;2.30;;;;;;;9.02;66.70;96796.00;5105649;28;20071;-50
2021/10/23 10:10:57;;;;;;;5.65;2.20;;;;;;;9.05;66.22;96790.00;5093390;28;20489;-45
2021/10/23 10:13:26;;;;;;;5.55;2.10;;;;;;;9.02;66.81;96797.91;5108821;28;20105;-46
2021/10/23 10:16:02;;;;;;;3.45;2.17;;;;;;;9.05;67.20;96798.09;5093286;28;20138;-46
2021/10/23 10:18:30;;;;;;;4.22;2.08;;;;;;;9.23;66.49;96798.28;5093043;28;20497;-48
2021/10/23 10:21:00;;;;;;;4.90;2.15;;;;;;;9.52;64.60;96806.03;5092890;28;20079;-48
2021/10/23 10:23:31;;;;;;;7.15;2.80;;;;;;;9.23;64.76;96798.28;5091311;28;20064;-47
2021/10/23 10:26:21;;;;;;;5.60;2.10;;;;;;;9.17;65.23;96796.81;5092722;28;20508;-46
2021/10/23 10:31:57;;;;;;;5.25;1.98;;;;;;;9.13;64.98;96791.19;5092287;28;20101;-46
2021/10/23 10:34:53;;;;;;;4.68;2.05;;;;;;;9.42;63.04;96790.84;5092522;28;20040;-49
2021/10/23 10:42:52;;;;;;;6.15;2.13;;;;;;;9.47;63.75;96784.56;5092615;28;20121;-50
2021/10/23 10:45:42;;;;;;;8.23;2.70;;;;;;;9.41;64.24;96797.34;5092002;28;20109;-51
2021/10/23 10:48:17;;;;;;;7.03;2.47;;;;;;;9.41;64.23;96786.56;5111507;28;20082;-50
2021/10/23 10:51:00;;;;;;;6.72;2.50;;;;;;;9.27;64.62;96789.28;5111711;28;20052;-52
2021/10/23 10:53:34;;;;;;;5.72;2.72;;;;;;;9.32;64.43;96796.47;5111952;28;20043;-50
2021/10/23 10:56:11;;;;;;;5.32;2.25;;;;;;;9.22;66.89;96792.09;5111116;28;20047;-49
2021/10/23 10:58:47;;;;;;;6.60;2.20;;;;;;;9.56;65.43;96793.53;5112057;28;20075;-50
2021/10/23 11:01:24;;;;;;;7.60;2.35;;;;;;;9.61;63.92;96790.72;5097413;28;20036;-49
2021/10/23 11:03:51;;;;;;;4.38;2.08;;;;;;;9.57;64.60;96793.22;5092480;28;20037;-53
2021/10/23 11:06:31;;;;;;;3.75;1.83;;;;;;;9.47;63.04;96789.94;5092510;28;20560;-51
2021/10/23 11:09:25;;;;;;;5.03;1.80;;;;;;;9.74;59.41;96780.97;5104704;28;20104;-49
2021/10/23 11:11:57;;;;;;;3.90;2.10;;;;;;;9.71;60.51;96776.16;5094723;28;20071;-50
2021/10/23 11:14:27;;;;;;;4.65;2.20;;;;;;;9.65;60.85;96783.59;5111756;28;20119;-52
2021/10/23 11:16:58;;;;;;;5.00;1.88;;;;;;;9.79;59.16;96783.56;5097642;28;20101;-52
2021/10/23 11:19:31;;;;;;;4.65;2.00;;;;;;;10.06;60.90;96783.44;5092047;28;20051;-49
2021/10/23 11:21:58;;;;;;;;;;;;;;;10.62;60.18;96785.84;5092646;28;20505;-48
2021/10/23 11:24:43;;;;;;;4.10;1.40;;;;;;;10.66;54.46;96773.28;5100414;28;19919;-52
2021/10/23 11:27:23;;;;;;;3.15;1.50;;;;;;;10.66;54.55;96779.50;5112748;28;20068;-52
2021/10/23 11:30:24;;;;;;;5.43;1.40;;;;;;;10.72;53.88;96761.22;5107898;28;20074;-51
2021/10/23 11:33:01;;;;;;;5.38;1.20;;;;;;;11.10;51.33;96769.63;5084004;28;20386;-52
2021/10/23 11:35:49;;;;;;;4.63;1.20;;;;;;;11.53;51.48;96770.81;5091970;28;20058;-53
2021/10/23 11:38:24;;;;;;;3.47;1.38;;;;;;;11.68;52.27;96767.63;5095890;28;20485;-50
2021/10/23 11:41:01;;;;;;;4.15;1.73;;;;;;;12.03;53.02;96771.16;5111329;28;20504;-50
2021/10/23 11:43:32;;;;;;;4.90;2.10;;;;;;;11.77;53.16;96760.31;5110712;28;20110;-53
2021/10/23 11:46:05;;;;;;;4.75;1.75;;;;;;;11.65;54.53;96771.00;5105979;28;20040;-49
2021/10/23 11:48:33;;;;;;;5.68;2.28;;;;;;;11.82;53.19;96765.56;5092148;28;20048;-53
2021/10/23 11:51:00;;;;;;;4.95;1.80;;;;;;;11.75;54.42;96775.28;5091852;28;20566;-50
2021/10/23 11:53:30;;;;;;;3.38;1.58;;;;;;;11.88;50.26;96763.50;5091540;28;20143;-52
2021/10/23 11:56:04;;;;;;;3.58;1.40;;;;;;;11.82;51.56;96762.84;5091546;28;20040;-51
2021/10/23 11:58:34;;;;;;;3.60;1.50;;;;;;;12.02;52.96;96757.91;5090935;28;20440;-51
2021/10/23 12:01:08;;;;;;;4.45;1.50;;;;;;;12.09;49.17;96759.03;5091686;28;20040;-51